Ed's Weather Station

Ed's Weather Station
Located south of Fulton, MO
Lat. 38.75234 N
Lon. 91.96758 W
Elevation 787 ft

GR3 Radar

Current 24 Hours Yesterday Last 48 Hours Last 72 Hours Last 30 Days Yearly Rainfall Yearly Temp Trends Monthly Wind Direction Last 30 Days Temperature Solar Data
Highs and Lows Trends Sun & Moon Rise\Set Times Moon\Solar Info
Local Weather Advisories Area Forecast Discussion Hazardous Weather Outlook U.S. Severe Weather Storm Prediction Center
All Time Records Monthly Records Yearly Records
Weather Gauges MW Weather Network
Local Area Conditions Printable Weather Flyer MO River Information
About Ed's Weather Weather Station Status Weather Graphic Personal Weather Sites
Kansas City NEXRAD Radar Local/Regional Radar Satellite Images
Weather Underground Data Rain Detail Chart
NWS Forecast Details Ed's Forecast Details UV Forecast Pollen Forecast Space Weather
Member of the following organizations:





Local Links:
Callaway County Sheriff

Eds Weather Station - WU Station History
Station Historical Data
 
Daily Summary for January 22, 2018 Units:  English    Metric   Both
« Previous Day
Next Day »
Daily Weekly Monthly Yearly Custom
  Current: High: Low: Average:
Temperature: 40.6 °F 56.5 °F 40.3 °F 48.5 °F
Dew Point: 34.0 °F 55.6 °F 31.3 °F 42.9 °F
Humidity: 77% 97% 56% 82%
Wind Speed: 8.1mph 26.5mph 1.2mph 7.3mph
Wind Gust: 8.1mph 26.5mph - -
WindSouth - - South
Pressure: 29.49 in 29.62 in 29.47 in -
Precipitation: 0.29 in      
Historical Graphs
 
 
Tabular Data for January 22, 2018
Time Temperature Dew Point Pressure Wind Wind Speed Wind Gust Humidity Rainfall Rate (Hourly) solar Conditions
00:01 56.4 °F 55.6 °F 29.62 in SE 6.9 mph 6.9 mph 97% 0.30 in 0.0 W/m2 +RA
00:11 56.5 °F 55.4 °F 29.61 in South 9.2 mph 9.2 mph 96% 0.24 in 0.0 W/m2 +RA
00:16 56.4 °F 55.3 °F 29.60 in South 7.0 mph 7.0 mph 96% 0.22 in 0.0 W/m2 +RA
00:21 56.3 °F 55.2 °F 29.59 in South 3.5 mph 3.5 mph 96% 0.21 in 0.0 W/m2 +RA
00:26 56.2 °F 55.1 °F 29.59 in ESE 4.6 mph 4.6 mph 96% 0.20 in 0.0 W/m2 +RA
00:31 56.1 °F 55.0 °F 29.60 in SSE 6.0 mph 6.0 mph 96% 0.19 in 0.0 W/m2 +RA
00:36 56.1 °F 55.0 °F 29.59 in South 6.9 mph 6.9 mph 96% 0.18 in 0.0 W/m2 +RA
00:41 56.0 °F 54.9 °F 29.58 in SSE 4.6 mph 4.6 mph 96% 0.18 in 0.0 W/m2 +RA
00:46 56.0 °F 54.9 °F 29.58 in ESE 3.5 mph 3.5 mph 96% 0.18 in 0.0 W/m2 +RA
00:56 55.8 °F 54.7 °F 29.57 in SSE 4.0 mph 4.0 mph 96% 0.19 in 0.0 W/m2 +RA
01:01 55.7 °F 54.6 °F 29.57 in SE 3.5 mph 3.5 mph 96% 0.20 in 0.0 W/m2 RA
01:06 55.5 °F 54.4 °F 29.56 in East 1.2 mph 1.2 mph 96% 0.20 in 0.0 W/m2 RA
01:11 55.4 °F 54.3 °F 29.55 in ESE 1.2 mph 1.2 mph 96% 0.19 in 0.0 W/m2 RA
01:21 55.1 °F 54.0 °F 29.53 in East 2.3 mph 2.3 mph 96% 0.16 in 0.0 W/m2 RA
01:26 55.0 °F 53.9 °F 29.53 in ESE 2.3 mph 2.3 mph 96% 0.15 in 0.0 W/m2 RA
01:31 54.9 °F 53.8 °F 29.53 in SSE 5.8 mph 5.8 mph 96% 0.15 in 0.0 W/m2 RA
01:36 54.8 °F 53.7 °F 29.53 in SE 3.5 mph 3.5 mph 96% 0.13 in 0.0 W/m2 RA
01:41 54.8 °F 53.7 °F 29.53 in South 4.6 mph 4.6 mph 96% 0.12 in 0.0 W/m2 OVC
01:46 54.7 °F 53.6 °F 29.53 in South 5.8 mph 5.8 mph 96% 0.11 in 0.0 W/m2 RA
01:56 54.5 °F 53.4 °F 29.53 in South 3.5 mph 3.5 mph 96% 0.08 in 0.0 W/m2 RA
02:01 54.5 °F 53.4 °F 29.54 in SSE 3.5 mph 3.5 mph 96% 0.07 in 0.0 W/m2 -RA
02:06 54.4 °F 53.6 °F 29.53 in SSE 2.3 mph 2.3 mph 97% 0.06 in 0.0 W/m2 -RA
02:11 54.4 °F 53.6 °F 29.51 in East 2.3 mph 2.3 mph 97% 0.05 in 0.0 W/m2 -RA
02:16 54.2 °F 53.1 °F 29.49 in East 2.3 mph 2.3 mph 96% 0.06 in 0.0 W/m2 -RA
02:21 54.1 °F 53.0 °F 29.50 in SE 3.5 mph 3.5 mph 96% 0.05 in 0.0 W/m2 -RA
02:26 54.1 °F 53.0 °F 29.50 in South 6.9 mph 6.9 mph 96% 0.05 in 0.0 W/m2 -RA
02:31 54.2 °F 53.4 °F 29.52 in South 8.1 mph 8.1 mph 97% 0.04 in 0.0 W/m2 -RA
02:41 54.1 °F 53.3 °F 29.52 in SSE 4.6 mph 4.6 mph 97% 0.04 in 0.0 W/m2 -RA
02:46 54.0 °F 53.2 °F 29.52 in SSE 4.6 mph 4.6 mph 97% 0.03 in 0.0 W/m2 -RA
02:56 53.9 °F 53.1 °F 29.52 in South 5.8 mph 5.8 mph 97% 0.02 in 0.0 W/m2 -RA
03:01 53.9 °F 53.1 °F 29.52 in SE 4.6 mph 4.6 mph 97% 0.01 in 0.0 W/m2 OVC
03:06 53.8 °F 53.0 °F 29.51 in SE 3.5 mph 3.5 mph 97% 0.01 in 0.0 W/m2 OVC
03:11 53.8 °F 53.0 °F 29.52 in SSE 2.3 mph 2.3 mph 97% 0.01 in 0.0 W/m2 OVC
03:16 53.6 °F 52.8 °F 29.52 in South 5.8 mph 5.8 mph 97% 0.00 in 0.0 W/m2 OVC
03:21 53.6 °F 52.8 °F 29.52 in SSE 3.5 mph 3.5 mph 97% 0.00 in 0.0 W/m2 OVC
03:26 53.5 °F 52.7 °F 29.52 in SE 4.6 mph 4.6 mph 97% 0.00 in 0.0 W/m2 OVC
03:31 53.5 °F 52.7 °F 29.52 in SSE 6.9 mph 6.9 mph 97% 0.00 in 0.0 W/m2 OVC
03:36 53.5 °F 52.7 °F 29.51 in SSE 3.5 mph 3.5 mph 97% 0.00 in 0.0 W/m2 OVC
03:46 53.4 °F 52.6 °F 29.49 in SE 3.5 mph 3.5 mph 97% 0.00 in 0.0 W/m2 OVC
03:56 53.1 °F 52.3 °F 29.50 in South 4.6 mph 4.6 mph 97% 0.00 in 0.0 W/m2 OVC
04:01 53.0 °F 52.2 °F 29.50 in SSE 3.5 mph 3.5 mph 97% 0.00 in 0.0 W/m2 FEW
04:06 53.0 °F 52.2 °F 29.50 in SSE 5.0 mph 5.0 mph 97% 0.00 in 0.0 W/m2 FEW
04:11 53.1 °F 52.3 °F 29.49 in SSE 1.2 mph   97% 0.00 in 0.0 W/m2 FEW
04:16 53.0 °F 52.2 °F 29.49 in ESE 3.5 mph 3.5 mph 97% 0.00 in 0.0 W/m2 FEW
04:21 52.8 °F 52.0 °F 29.49 in SSE 3.5 mph 3.5 mph 97% 0.00 in 0.0 W/m2 FEW
04:26 52.9 °F 52.1 °F 29.50 in South 5.8 mph 5.8 mph 97% 0.00 in 0.0 W/m2 FEW
04:31 53.0 °F 52.2 °F 29.49 in South 5.8 mph 5.8 mph 97% 0.00 in 0.0 W/m2 FEW
04:46 52.6 °F 51.8 °F 29.49 in SSW 4.6 mph 4.6 mph 97% 0.00 in 0.0 W/m2 FEW
04:51 52.6 °F 51.8 °F 29.49 in SE 5.8 mph 5.8 mph 97% 0.00 in 0.0 W/m2 FEW
04:56 52.6 °F 51.8 °F 29.49 in SE 6.9 mph 6.9 mph 97% 0.00 in 0.0 W/m2 FEW
05:01 52.6 °F 51.8 °F 29.49 in SE 8.1 mph 8.1 mph 97% 0.00 in 0.0 W/m2 SCT
05:11 52.4 °F 51.6 °F 29.50 in South 9.2 mph 9.2 mph 97% 0.00 in 0.0 W/m2 SCT
05:16 52.4 °F 51.6 °F 29.50 in SSW 3.5 mph 3.5 mph 97% 0.00 in 0.0 W/m2 SCT
05:21 52.3 °F 51.5 °F 29.50 in South 5.0 mph 5.0 mph 97% 0.00 in 0.0 W/m2 SCT
05:26 52.1 °F 51.3 °F 29.49 in SSE 3.5 mph 3.5 mph 97% 0.00 in 0.0 W/m2 SCT
05:36 52.0 °F 51.2 °F 29.49 in ESE 5.8 mph 5.8 mph 97% 0.00 in 0.0 W/m2 SCT
05:41 52.0 °F 51.2 °F 29.50 in SSW 7.0 mph 7.0 mph 97% 0.00 in 0.0 W/m2 SCT
05:46 51.9 °F 51.1 °F 29.50 in South 4.6 mph 4.6 mph 97% 0.00 in 0.0 W/m2 SCT
05:56 51.7 °F 50.9 °F 29.50 in South 5.8 mph 5.8 mph 97% 0.00 in 0.0 W/m2 SCT
06:01 51.5 °F 50.7 °F 29.50 in South 6.9 mph 6.9 mph 97% 0.00 in 0.0 W/m2 SCT
06:06 51.3 °F 50.2 °F 29.50 in South 5.8 mph 5.8 mph 96% 0.00 in 0.0 W/m2 SCT
06:11 51.1 °F 50.0 °F 29.50 in South 4.0 mph 4.0 mph 96% 0.00 in 0.0 W/m2 SCT
06:21 50.7 °F 49.6 °F 29.50 in South 6.0 mph 6.0 mph 96% 0.00 in 0.0 W/m2 SCT
06:26 50.6 °F 49.2 °F 29.49 in South 4.6 mph 4.6 mph 95% 0.00 in 0.0 W/m2 SCT
06:31 50.5 °F 49.1 °F 29.50 in SSW 10.0 mph 10.0 mph 95% 0.00 in 0.0 W/m2 SCT
06:36 50.3 °F 48.9 °F 29.50 in SSE 9.2 mph 9.2 mph 95% 0.00 in 0.0 W/m2 SCT
06:41 50.1 °F 48.7 °F 29.50 in SSW 4.0 mph 4.0 mph 95% 0.00 in 0.0 W/m2 SCT
06:51 49.7 °F 48.0 °F 29.50 in South 3.5 mph 3.5 mph 94% 0.00 in 0.0 W/m2 SCT
06:56 49.6 °F 47.9 °F 29.50 in South 5.8 mph 5.8 mph 94% 0.00 in 0.0 W/m2 SCT
07:01 49.6 °F 47.9 °F 29.50 in SSE 4.6 mph 4.6 mph 94% 0.00 in 0.0 W/m2 CLR
07:06 49.5 °F 47.6 °F 29.50 in South 5.8 mph 5.8 mph 93% 0.00 in 0.0 W/m2 CLR
07:11 49.3 °F 47.4 °F 29.50 in South 5.8 mph 5.8 mph 93% 0.00 in 0.0 W/m2 CLR
07:16 49.2 °F 47.3 °F 29.50 in South 5.8 mph 5.8 mph 93% 0.00 in 0.0 W/m2 CLR
07:21 49.1 °F 47.2 °F 29.50 in South 4.6 mph 4.6 mph 93% 0.00 in 0.0 W/m2 CLR
07:26 48.9 °F 47.0 °F 29.50 in SSE 7.0 mph 7.0 mph 93% 0.00 in 0.0 W/m2 CLR
07:31 48.8 °F 46.9 °F 29.49 in SSW 5.8 mph 5.8 mph 93% 0.00 in 0.0 W/m2 CLR
07:41 48.5 °F 46.6 °F 29.50 in SSE 6.9 mph 6.9 mph 93% 0.00 in 7.0 W/m2 CLR
07:46 48.3 °F 46.4 °F 29.50 in South 3.5 mph 3.5 mph 93% 0.00 in 9.0 W/m2 CLR
07:51 48.0 °F 46.1 °F 29.50 in SSW 3.5 mph 3.5 mph 93% 0.00 in 11.0 W/m2 CLR
07:56 47.9 °F 46.0 °F 29.50 in South 3.5 mph 3.5 mph 93% 0.00 in 12.0 W/m2 CLR
08:01 47.8 °F 45.9 °F 29.50 in South 8.1 mph 8.1 mph 93% 0.00 in 12.0 W/m2 CLR
08:06 48.0 °F 46.1 °F 29.50 in South 6.0 mph 6.0 mph 93% 0.00 in 12.0 W/m2 CLR
08:21 48.5 °F 45.4 °F 29.50 in SSW 8.1 mph 8.1 mph 89% 0.00 in 14.0 W/m2 CLR
08:31 48.5 °F 45.4 °F 29.50 in South 5.8 mph 5.8 mph 89% 0.00 in 16.0 W/m2 CLR
08:36 48.5 °F 45.4 °F 29.50 in SSW 3.5 mph 3.5 mph 89% 0.00 in 18.0 W/m2 CLR
08:41 48.5 °F 45.4 °F 29.50 in South 4.0 mph 4.0 mph 89% 0.00 in 18.0 W/m2 CLR
08:46 48.7 °F 45.0 °F 29.50 in SSW 6.0 mph 6.0 mph 87% 0.00 in 19.0 W/m2 CLR
08:51 48.7 °F 44.1 °F 29.50 in SW 11.5 mph 11.5 mph 84% 0.00 in 21.0 W/m2 CLR
08:56 48.8 °F 44.2 °F 29.51 in SSW 5.8 mph 5.8 mph 84% 0.00 in 63.0 W/m2 CLR
09:01 48.6 °F 42.7 °F 29.51 in SSW 8.1 mph 8.1 mph 80% 0.00 in 46.0 W/m2 CLR
09:06 47.7 °F 40.5 °F 29.52 in SW 12.7 mph 12.7 mph 76% 0.00 in 28.0 W/m2 CLR
09:11 47.0 °F 39.8 °F 29.52 in SSW 6.9 mph 6.9 mph 76% 0.00 in 26.0 W/m2 CLR
09:16 46.5 °F 38.7 °F 29.52 in SSW 8.1 mph 8.1 mph 74% 0.00 in 28.0 W/m2 CLR
09:21 46.2 °F 38.7 °F 29.52 in SW 8.1 mph 8.1 mph 75% 0.00 in 28.0 W/m2 CLR
09:26 46.0 °F 38.2 °F 29.52 in SSW 6.9 mph 6.9 mph 74% 0.00 in 30.0 W/m2 CLR
09:31 45.8 °F 37.3 °F 29.52 in SW 11.5 mph 11.5 mph 72% 0.00 in 74.0 W/m2 CLR
09:36 45.7 °F 37.2 °F 29.53 in SSW 10.4 mph 10.4 mph 72% 0.00 in 32.0 W/m2 CLR
09:41 45.5 °F 37.0 °F 29.52 in South 11.5 mph 11.5 mph 72% 0.00 in 39.0 W/m2 CLR
09:46 45.4 °F 37.2 °F 29.52 in SSW 4.6 mph 5.0 mph 73% 0.00 in 39.0 W/m2 CLR
09:51 45.5 °F 37.3 °F 29.52 in SSW 10.4 mph 10.4 mph 73% 0.00 in 49.0 W/m2 CLR
09:56 45.7 °F 36.5 °F 29.52 in SSW 12.7 mph 12.7 mph 70% 0.00 in 63.0 W/m2 CLR
10:01 45.9 °F 37.4 °F 29.52 in South 6.9 mph 6.9 mph 72% 0.00 in 121.0 W/m2 CLR
10:06 46.1 °F 37.6 °F 29.52 in SSW 11.5 mph 11.5 mph 72% 0.00 in 142.0 W/m2 CLR
10:11 46.4 °F 37.5 °F 29.51 in South 11.5 mph 11.5 mph 71% 0.00 in 176.0 W/m2 CLR
10:16 46.4 °F 36.8 °F 29.51 in SSE 11.5 mph 11.5 mph 69% 0.00 in 264.0 W/m2 CLR
10:21 46.8 °F 37.9 °F 29.51 in South 6.9 mph 6.9 mph 71% 0.00 in 302.0 W/m2 CLR
10:26 47.0 °F 37.0 °F 29.51 in SSW 10.4 mph 10.4 mph 68% 0.00 in 360.0 W/m2 CLR
10:31 46.9 °F 36.9 °F 29.51 in SW 13.8 mph 13.8 mph 68% 0.00 in 183.0 W/m2 CLR
10:36 47.2 °F 37.5 °F 29.51 in SSW 10.0 mph 10.0 mph 69% 0.00 in 120.0 W/m2 CLR
10:41 47.5 °F 37.1 °F 29.51 in SSW 8.1 mph 8.1 mph 67% 0.00 in 278.0 W/m2 CLR
10:46 47.6 °F 36.8 °F 29.51 in SSW 12.7 mph 12.7 mph 66% 0.00 in 49.0 W/m2 CLR
10:51 47.7 °F 37.7 °F 29.51 in SSW 11.5 mph 11.5 mph 68% 0.00 in 98.0 W/m2 CLR
10:56 48.2 °F 36.6 °F 29.51 in SW 11.5 mph 11.5 mph 64% 0.00 in 67.0 W/m2 CLR
11:01 48.3 °F 37.5 °F 29.51 in SW 9.2 mph 9.2 mph 66% 0.00 in 97.0 W/m2 CLR
11:06 47.8 °F 36.6 °F 29.51 in SSW 7.0 mph 7.0 mph 65% 0.00 in 70.0 W/m2 CLR
11:11 47.7 °F 35.7 °F 29.51 in SSW 11.5 mph 11.5 mph 63% 0.00 in 496.0 W/m2 CLR
11:16 48.3 °F 35.9 °F 29.50 in SSW 11.5 mph 11.5 mph 62% 0.00 in 494.0 W/m2 CLR
11:21 48.5 °F 35.2 °F 29.51 in SSW 8.1 mph 8.1 mph 60% 0.00 in 494.0 W/m2 CLR
11:26 48.8 °F 35.5 °F 29.51 in SSW 10.4 mph 10.4 mph 60% 0.00 in 506.0 W/m2 CLR
11:31 48.8 °F 35.5 °F 29.50 in SSW 11.5 mph 11.5 mph 60% 0.00 in 490.0 W/m2 CLR
11:36 48.9 °F 36.4 °F 29.50 in SSW 9.2 mph 9.2 mph 62% 0.00 in 476.0 W/m2 CLR
11:41 49.0 °F 35.3 °F 29.50 in SSW 8.1 mph 8.4 mph 59% 0.00 in 471.0 W/m2 CLR
11:46 48.7 °F 34.6 °F 29.50 in SW 11.0 mph 11.0 mph 58% 0.00 in 438.0 W/m2 CLR
11:51 48.1 °F 33.6 °F 29.50 in SSW 9.2 mph 9.2 mph 57% 0.00 in 151.0 W/m2 CLR
11:56 46.6 °F 31.7 °F 29.50 in SSW 26.5 mph 26.5 mph 56% 0.00 in 120.0 W/m2 CLR
12:01 45.7 °F 32.6 °F 29.50 in SSW 7.0 mph 7.0 mph 60% 0.00 in 67.0 W/m2 OVC
12:06 45.4 °F 33.5 °F 29.50 in SW 6.9 mph 6.9 mph 63% 0.00 in 47.0 W/m2 OVC
12:11 44.9 °F 33.1 °F 29.50 in SSW 9.2 mph 9.2 mph 63% 0.00 in 42.0 W/m2 OVC
12:16 44.4 °F 33.7 °F 29.50 in SSW 6.0 mph 6.0 mph 66% 0.00 in 47.0 W/m2 OVC
12:21 44.1 °F 32.7 °F 29.50 in SSW 9.2 mph 9.2 mph 64% 0.00 in 39.0 W/m2 OVC
12:26 43.8 °F 32.4 °F 29.50 in SSW 11.0 mph 11.0 mph 64% 0.00 in 40.0 W/m2 OVC
12:31 43.6 °F 32.6 °F 29.50 in SSW 10.4 mph 10.4 mph 65% 0.00 in 53.0 W/m2 OVC
12:36 43.5 °F 32.5 °F 29.50 in SSW 8.1 mph 8.1 mph 65% 0.00 in 70.0 W/m2 OVC
12:41 43.4 °F 32.8 °F 29.50 in SSW 6.9 mph 6.9 mph 66% 0.00 in 56.0 W/m2 OVC
12:46 43.4 °F 32.4 °F 29.49 in SSW 5.8 mph 5.8 mph 65% 0.01 in 53.0 W/m2 RA
12:51 43.3 °F 32.3 °F 29.49 in SSW 10.0 mph 10.0 mph 65% 0.01 in 47.0 W/m2 RA
12:56 43.2 °F 33.0 °F 29.49 in SSW 6.0 mph 6.0 mph 67% 0.01 in 86.0 W/m2 OVC
13:01 43.2 °F 32.6 °F 29.49 in South 9.0 mph 9.0 mph 66% 0.01 in 81.0 W/m2 OVC
13:06 43.2 °F 33.0 °F 29.49 in South 11.5 mph 11.5 mph 67% 0.01 in 69.0 W/m2 OVC
13:11 43.1 °F 32.1 °F 29.48 in SSW 10.4 mph 10.4 mph 65% 0.01 in 58.0 W/m2 OVC
13:16 43.0 °F 32.4 °F 29.48 in South 6.9 mph 6.9 mph 66% 0.01 in 33.0 W/m2 OVC
13:21 42.8 °F 31.8 °F 29.48 in SSW 11.5 mph 11.5 mph 65% 0.01 in 23.0 W/m2 OVC
13:26 42.6 °F 31.7 °F 29.48 in SSW 11.5 mph 11.5 mph 65% 0.01 in 21.0 W/m2 OVC
13:31 42.4 °F 31.5 °F 29.48 in South 11.5 mph 11.5 mph 65% 0.01 in 25.0 W/m2 OVC
13:36 42.3 °F 31.7 °F 29.48 in SW 7.0 mph 7.0 mph 66% 0.01 in 28.0 W/m2 OVC
13:41 42.3 °F 31.4 °F 29.48 in SSW 12.7 mph 12.7 mph 65% 0.01 in 21.0 W/m2 OVC
13:46 42.2 °F 31.3 °F 29.48 in SW 6.9 mph 6.9 mph 65% 0.00 in 21.0 W/m2 OVC
13:51 42.2 °F 32.0 °F 29.48 in SSE 6.0 mph 6.0 mph 67% 0.00 in 28.0 W/m2 OVC
13:56 42.0 °F 31.5 °F 29.48 in South 13.8 mph 13.8 mph 66% 0.00 in 26.0 W/m2 OVC
14:01 42.0 °F 31.8 °F 29.48 in SW 8.1 mph 8.1 mph 67% 0.00 in 28.0 W/m2 OVC
14:06 41.9 °F 31.7 °F 29.48 in South 8.1 mph 8.1 mph 67% 0.00 in 18.0 W/m2 OVC
14:11 41.8 °F 31.6 °F 29.48 in SW 6.9 mph 6.9 mph 67% 0.00 in 23.0 W/m2 OVC
14:16 41.8 °F 31.6 °F 29.48 in SSW 9.2 mph 9.2 mph 67% 0.00 in 23.0 W/m2 OVC
14:21 41.9 °F 31.7 °F 29.47 in SE 5.0 mph 5.0 mph 67% 0.00 in 23.0 W/m2 OVC
14:26 41.9 °F 31.7 °F 29.47 in SSE 12.7 mph 12.7 mph 67% 0.00 in 35.0 W/m2 OVC
14:31 41.9 °F 32.1 °F 29.47 in South 8.1 mph 8.1 mph 68% 0.00 in 33.0 W/m2 OVC
14:36 42.0 °F 32.2 °F 29.47 in SSE 23.0 mph 23.0 mph 68% 0.00 in 33.0 W/m2 OVC
14:41 42.0 °F 31.8 °F 29.47 in SW 9.2 mph 9.2 mph 67% 0.00 in 30.0 W/m2 OVC
14:46 42.0 °F 32.2 °F 29.48 in South 10.4 mph 10.4 mph 68% 0.00 in 21.0 W/m2 OVC
14:51 41.9 °F 32.1 °F 29.48 in SSW 8.1 mph 8.1 mph 68% 0.00 in 14.0 W/m2 OVC
14:56 41.8 °F 32.0 °F 29.48 in SSW 11.5 mph 11.5 mph 68% 0.00 in 14.0 W/m2 OVC
15:01 41.8 °F 32.4 °F 29.48 in South 8.1 mph 8.1 mph 69% 0.00 in 16.0 W/m2 -RA
15:06 41.6 °F 32.5 °F 29.48 in SSW 9.2 mph 9.2 mph 70% 0.00 in 14.0 W/m2 -RA
15:11 41.4 °F 32.3 °F 29.48 in SSW 6.9 mph 6.9 mph 70% 0.00 in 14.0 W/m2 -RA
15:16 41.3 °F 32.6 °F 29.48 in South 6.0 mph 6.0 mph 71% 0.00 in 14.0 W/m2 -RA
15:21 41.3 °F 32.6 °F 29.48 in South 8.1 mph 8.1 mph 71% 0.00 in 12.0 W/m2 -RA
15:26 41.1 °F 32.8 °F 29.48 in South 9.2 mph 9.2 mph 72% 0.00 in 12.0 W/m2 -RA
15:31 41.0 °F 33.0 °F 29.48 in South 8.1 mph 8.1 mph 73% 0.00 in 9.0 W/m2 -RA
15:36 40.9 °F 32.9 °F 29.48 in SSW 15.0 mph 15.0 mph 73% 0.00 in 11.0 W/m2 -RA
15:41 40.8 °F 33.2 °F 29.49 in SSW 9.2 mph 9.2 mph 74% 0.00 in 14.0 W/m2 -RA
15:46 40.5 °F 33.5 °F 29.48 in SW 11.5 mph 11.5 mph 76% 0.00 in 7.0 W/m2 -RA
15:51 40.3 °F 33.3 °F 29.49 in SSW 8.1 mph 8.1 mph 76% 0.00 in 12.0 W/m2 -RA
15:56 40.3 °F 33.7 °F 29.49 in SSW 9.2 mph 9.2 mph 77% 0.00 in 11.0 W/m2 -RA
16:01 40.4 °F 33.4 °F 29.48 in SE 9.0 mph 9.0 mph 76% 0.00 in 12.0 W/m2 -RA
16:06 40.6 °F 34.0 °F 29.49 in South 8.1 mph 8.1 mph 77% 0.00 in 12.0 W/m2 -RA
Fulton, MO, USA
Compliments of Weather Underground - 1.5 mb